createdAt,value
2023-02-18T00:00:59.161Z,14.00
2023-02-18T00:03:27.862Z,14.09
2023-02-18T00:05:55.508Z,14.19
2023-02-18T00:08:23.081Z,14.00
2023-02-18T00:10:50.041Z,13.63
2023-02-18T00:13:18.340Z,13.87
2023-02-18T00:15:45.361Z,13.75
2023-02-18T00:18:12.429Z,13.86
2023-02-18T00:20:40.028Z,13.97
2023-02-18T00:23:07.565Z,13.96
2023-02-18T00:25:34.526Z,13.95
2023-02-18T00:28:01.318Z,14.02
2023-02-18T00:30:33.180Z,13.95
2023-02-18T00:33:00.042Z,14.13
2023-02-18T00:35:30.243Z,14.05
2023-02-18T00:37:57.481Z,14.16
2023-02-18T00:40:24.302Z,14.05
2023-02-18T00:42:51.439Z,14.10
2023-02-18T00:45:18.439Z,14.06
2023-02-18T00:47:46.976Z,14.00
2023-02-18T00:50:13.849Z,13.86
2023-02-18T00:52:40.995Z,13.90
2023-02-18T00:55:08.364Z,13.68
2023-02-18T00:57:35.218Z,13.70
2023-02-18T01:00:03.184Z,13.90
2023-02-18T01:02:30.460Z,13.91
2023-02-18T01:05:00.219Z,14.00
2023-02-18T01:07:27.229Z,14.17
2023-02-18T01:09:54.250Z,14.16
2023-02-18T01:12:21.457Z,14.05
2023-02-18T01:14:48.364Z,13.68
2023-02-18T01:17:15.375Z,13.91
2023-02-18T01:19:42.524Z,13.90
2023-02-18T01:22:10.964Z,14.02
2023-02-18T01:24:38.337Z,14.21
2023-02-18T01:27:05.416Z,14.19
2023-02-18T01:29:32.596Z,14.19
2023-02-18T01:31:59.635Z,13.96
2023-02-18T01:34:26.576Z,13.80
2023-02-18T01:36:53.393Z,13.87
2023-02-18T01:39:21.711Z,13.91
2023-02-18T01:41:49.069Z,14.05
2023-02-18T01:44:20.986Z,13.93
2023-02-18T01:46:49.369Z,14.00
2023-02-18T01:49:23.537Z,14.02
2023-02-18T01:51:57.106Z,13.86
2023-02-18T01:54:31.725Z,14.13
2023-02-18T01:57:05.635Z,13.90
2023-02-18T01:59:36.598Z,13.86
2023-02-18T02:02:07.662Z,13.89
2023-02-18T02:04:34.933Z,13.89
2023-02-18T02:07:02.735Z,13.96
2023-02-18T02:09:34.484Z,14.10
2023-02-18T02:12:27.562Z,14.09
2023-02-18T02:15:13.856Z,13.97
2023-02-18T02:17:57.691Z,14.03
2023-02-18T02:21:14.737Z,14.21
2023-02-18T02:24:22.843Z,14.02
2023-02-18T02:27:19.980Z,14.05
2023-02-18T02:30:38.306Z,14.17
2023-02-18T02:33:50.020Z,14.19
2023-02-18T02:36:25.623Z,14.17
2023-02-18T02:39:01.070Z,14.20
2023-02-18T02:41:46.802Z,14.16
2023-02-18T02:44:22.156Z,14.14
2023-02-18T02:46:57.413Z,14.24
2023-02-18T02:49:41.713Z,14.07
2023-02-18T02:52:19.784Z,14.16
2023-02-18T02:54:47.320Z,14.17
2023-02-18T02:57:53.468Z,14.17
2023-02-18T03:00:45.196Z,14.20
2023-02-18T03:03:35.152Z,14.03
2023-02-18T03:06:49.895Z,14.10
2023-02-18T03:09:32.750Z,14.20
2023-02-18T03:12:16.588Z,14.20
2023-02-18T03:14:57.024Z,14.10
2023-02-18T03:17:30.114Z,13.96
2023-02-18T03:20:08.687Z,13.89
2023-02-18T03:25:37.656Z,13.76
2023-02-18T03:28:12.119Z,13.87
2023-02-18T03:30:46.337Z,13.75
2023-02-18T03:33:18.475Z,13.62
2023-02-18T03:35:47.865Z,13.69
2023-02-18T03:38:24.339Z,13.65
2023-02-18T03:40:52.755Z,13.68
2023-02-18T03:43:19.928Z,13.79
2023-02-18T03:45:47.423Z,13.56
2023-02-18T03:48:14.491Z,13.48
2023-02-18T03:50:43.103Z,13.62
2023-02-18T03:53:10.746Z,13.86
2023-02-18T03:55:37.851Z,13.90
2023-02-18T03:58:06.132Z,13.95
2023-02-18T04:00:33.326Z,14.00
2023-02-18T04:03:00.400Z,14.03
2023-02-18T04:05:27.408Z,14.02
2023-02-18T04:07:54.484Z,13.87
2023-02-18T04:10:21.323Z,13.82
2023-02-18T04:12:48.434Z,13.78
2023-02-18T04:15:16.883Z,13.76
2023-02-18T04:17:43.937Z,13.79
2023-02-18T04:20:12.566Z,13.82
2023-02-18T04:25:30.665Z,13.52
2023-02-18T04:27:57.888Z,13.63
2023-02-18T04:30:26.970Z,13.41
2023-02-18T04:32:53.948Z,13.24
2023-02-18T04:35:21.175Z,13.48
2023-02-18T04:37:48.338Z,13.41
2023-02-18T04:40:15.604Z,13.01
2023-02-18T04:42:42.620Z,13.54
2023-02-18T04:45:10.063Z,13.61
2023-02-18T04:47:38.686Z,13.54
2023-02-18T04:50:08.676Z,13.54
2023-02-18T04:52:35.544Z,13.51
2023-02-18T04:55:02.477Z,13.68
2023-02-18T04:57:29.529Z,13.73
2023-02-18T04:59:56.579Z,13.73
2023-02-18T05:02:23.951Z,13.83
2023-02-18T05:04:52.142Z,13.96
2023-02-18T05:07:19.283Z,14.05
2023-02-18T05:09:46.422Z,14.03
2023-02-18T05:12:13.377Z,14.06
2023-02-18T05:14:40.487Z,14.12
2023-02-18T05:17:07.779Z,14.09
2023-02-18T05:19:34.699Z,13.83
2023-02-18T05:22:04.279Z,13.93
2023-02-18T05:24:31.911Z,13.89
2023-02-18T05:26:59.213Z,14.03
2023-02-18T05:29:26.229Z,13.91
2023-02-18T05:31:53.334Z,13.95
2023-02-18T05:34:20.384Z,14.06
2023-02-18T05:36:47.228Z,14.16
2023-02-18T05:39:15.544Z,14.26
2023-02-18T05:41:42.460Z,14.21
2023-02-18T05:44:09.900Z,14.14
2023-02-18T05:46:37.383Z,14.14
2023-02-18T05:49:04.643Z,14.17
2023-02-18T05:51:31.835Z,14.12
2023-02-18T05:53:58.795Z,13.90
2023-02-18T05:56:27.375Z,14.07
2023-02-18T05:58:54.562Z,14.17
2023-02-18T06:01:21.894Z,13.97
2023-02-18T06:03:48.678Z,13.91
2023-02-18T06:06:15.792Z,13.91
2023-02-18T06:08:42.644Z,13.87
2023-02-18T06:11:09.908Z,14.06
2023-02-18T06:13:38.143Z,13.93
2023-02-18T06:16:06.319Z,14.05
2023-02-18T06:18:33.375Z,13.76
2023-02-18T06:21:00.841Z,13.82
2023-02-18T06:23:28.251Z,13.69
2023-02-18T06:25:55.236Z,13.75
2023-02-18T06:28:22.338Z,13.72
2023-02-18T06:30:51.209Z,13.83
2023-02-18T06:33:18.106Z,13.72
2023-02-18T06:35:54.895Z,13.49
2023-02-18T06:38:21.955Z,13.27
2023-02-18T06:40:48.946Z,13.58
2023-02-18T06:43:16.053Z,13.75
2023-02-18T06:45:43.130Z,13.89
2023-02-18T06:48:12.060Z,13.95
2023-02-18T06:50:42.961Z,14.05
2023-02-18T06:53:10.184Z,13.91
2023-02-18T06:55:37.697Z,13.85
2023-02-18T06:58:05.469Z,13.86
2023-02-18T07:00:32.661Z,13.97
2023-02-18T07:02:59.574Z,13.96
2023-02-18T07:05:28.873Z,13.93
2023-02-18T07:07:56.116Z,13.89
2023-02-18T07:10:23.535Z,13.93
2023-02-18T07:12:50.556Z,13.75
2023-02-18T07:15:17.939Z,13.85
2023-02-18T07:17:44.939Z,13.89
2023-02-18T07:20:12.266Z,13.73
2023-02-18T07:25:32.246Z,13.72
2023-02-18T07:27:59.807Z,13.78
2023-02-18T07:30:26.874Z,13.89
2023-02-18T07:32:53.849Z,13.68
2023-02-18T07:35:20.954Z,13.69
2023-02-18T07:37:50.079Z,13.52
2023-02-18T07:40:19.840Z,13.70
2023-02-18T07:42:46.719Z,13.79
2023-02-18T07:45:14.905Z,13.97
2023-02-18T07:47:42.102Z,14.09
2023-02-18T07:50:10.994Z,14.24
2023-02-18T07:52:38.091Z,14.12
2023-02-18T07:55:08.039Z,14.23
2023-02-18T07:57:34.895Z,14.36
2023-02-18T08:00:01.689Z,14.45
2023-02-18T08:02:28.667Z,14.45
2023-02-18T08:04:55.993Z,14.57
2023-02-18T08:07:25.898Z,14.70
2023-02-18T08:09:52.825Z,14.78
2023-02-18T08:12:20.962Z,14.82
2023-02-18T08:14:47.894Z,14.92
2023-02-18T08:17:14.695Z,15.01
2023-02-18T08:19:41.573Z,15.13
2023-02-18T08:22:08.540Z,15.23
2023-02-18T08:24:35.611Z,15.35
2023-02-18T08:27:02.580Z,15.39
2023-02-18T08:29:31.402Z,15.52
2023-02-18T08:31:58.502Z,15.59
2023-02-18T08:34:25.751Z,15.66
2023-02-18T08:36:53.098Z,15.77
2023-02-18T08:39:20.032Z,15.77
2023-02-18T08:41:46.883Z,15.83
2023-02-18T08:44:14.127Z,15.89
2023-02-18T08:46:42.532Z,15.94
2023-02-18T08:49:09.635Z,16.01
2023-02-18T08:51:36.578Z,16.07
2023-02-18T08:54:03.547Z,16.10
2023-02-18T08:56:30.687Z,16.05
2023-02-18T08:58:58.586Z,16.01
2023-02-18T09:01:25.580Z,15.91
2023-02-18T09:03:54.159Z,15.86
2023-02-18T09:06:21.031Z,15.87
2023-02-18T09:08:48.024Z,15.91
2023-02-18T09:11:15.567Z,15.89
2023-02-18T09:13:42.677Z,15.93
2023-02-18T09:16:14.101Z,15.96
2023-02-18T09:18:41.512Z,15.97
2023-02-18T09:21:14.393Z,15.94
2023-02-18T09:23:42.434Z,15.83
2023-02-18T09:26:15.186Z,15.89
2023-02-18T09:29:07.458Z,15.71
2023-02-18T09:31:34.450Z,15.70
2023-02-18T09:34:03.383Z,15.74
2023-02-18T09:36:32.071Z,15.67
2023-02-18T09:38:59.388Z,15.60
2023-02-18T09:41:39.347Z,15.71
2023-02-18T09:44:15.230Z,15.76
2023-02-18T09:46:51.100Z,15.84
2023-02-18T09:49:22.967Z,15.97
2023-02-18T09:51:53.087Z,16.11
2023-02-18T09:54:21.204Z,16.21
2023-02-18T09:56:49.419Z,16.28
2023-02-18T09:59:19.480Z,16.28
2023-02-18T10:01:50.031Z,16.29
2023-02-18T10:04:21.165Z,16.34
2023-02-18T10:06:52.767Z,16.44
2023-02-18T10:09:23.748Z,16.38
2023-02-18T10:11:55.906Z,16.36
2023-02-18T10:14:25.641Z,16.45
2023-02-18T10:16:53.492Z,16.49
2023-02-18T10:19:26.276Z,16.49
2023-02-18T10:21:56.006Z,16.51
2023-02-18T10:24:31.612Z,16.53
2023-02-18T10:27:00.109Z,16.53
2023-02-18T10:29:28.329Z,16.62
2023-02-18T10:32:04.610Z,16.61
2023-02-18T10:34:41.762Z,16.63
2023-02-18T10:37:37.991Z,16.68
2023-02-18T10:40:17.914Z,16.65
2023-02-18T10:43:03.579Z,16.63
2023-02-18T10:45:40.206Z,16.62
2023-02-18T10:48:40.864Z,16.59
2023-02-18T10:51:19.750Z,16.59
2023-02-18T10:53:52.349Z,16.59
2023-02-18T10:56:40.182Z,16.63
2023-02-18T10:59:13.488Z,16.55
2023-02-18T11:01:43.371Z,16.36
2023-02-18T11:04:17.611Z,16.42
2023-02-18T11:06:48.110Z,16.29
2023-02-18T11:09:32.085Z,16.35
2023-02-18T11:12:08.602Z,16.38
2023-02-18T11:14:43.789Z,16.44
2023-02-18T11:17:20.804Z,16.41
2023-02-18T11:19:57.811Z,16.42
2023-02-18T11:22:29.673Z,16.51
2023-02-18T11:25:02.117Z,16.61
2023-02-18T11:27:40.357Z,16.69
2023-02-18T11:30:21.640Z,16.69
2023-02-18T11:32:51.327Z,16.66
2023-02-18T11:35:22.053Z,16.58
2023-02-18T11:37:50.010Z,16.25
2023-02-18T11:40:25.695Z,16.20
2023-02-18T11:43:11.709Z,16.22
2023-02-18T11:45:39.074Z,16.20
2023-02-18T11:48:16.352Z,16.34
2023-02-18T11:50:45.390Z,16.24
2023-02-18T11:53:28.909Z,16.38
2023-02-18T11:56:00.254Z,16.47
2023-02-18T11:58:31.725Z,16.65
2023-02-18T12:04:06.229Z,16.86
2023-02-18T12:06:38.420Z,16.93
2023-02-18T12:09:24.998Z,17.04
2023-02-18T12:12:00.194Z,17.12
2023-02-18T12:14:28.150Z,17.13
2023-02-18T12:17:30.710Z,17.19
2023-02-18T12:20:19.203Z,17.12
2023-02-18T12:22:59.039Z,17.10
2023-02-18T12:25:42.502Z,17.09
2023-02-18T12:28:31.594Z,17.09
2023-02-18T12:31:39.146Z,17.10
2023-02-18T12:34:27.207Z,17.04
2023-02-18T12:37:14.341Z,16.93
2023-02-18T12:40:11.812Z,16.80
2023-02-18T12:42:57.578Z,16.72
2023-02-18T12:45:53.523Z,16.63
2023-02-18T12:48:49.591Z,16.56
2023-02-18T12:51:44.214Z,16.52
2023-02-18T12:54:31.963Z,16.59
2023-02-18T12:57:25.585Z,16.73
2023-02-18T13:00:43.745Z,16.82
2023-02-18T13:03:49.748Z,16.87
2023-02-18T13:06:42.334Z,16.93
2023-02-18T13:09:26.357Z,16.90
2023-02-18T13:12:07.214Z,16.80
2023-02-18T13:14:46.291Z,16.75
2023-02-18T13:17:18.614Z,16.66
2023-02-18T13:19:50.378Z,16.47
2023-02-18T13:22:22.828Z,16.36
2023-02-18T13:24:52.772Z,16.29
2023-02-18T13:27:29.814Z,16.17
2023-02-18T13:30:22.950Z,16.04
2023-02-18T13:33:08.111Z,15.97
2023-02-18T13:35:43.589Z,15.98
2023-02-18T13:38:48.501Z,16.05
2023-02-18T13:41:15.869Z,16.02
2023-02-18T13:43:42.747Z,16.12
2023-02-18T13:46:48.922Z,16.18
2023-02-18T13:49:21.948Z,16.14
2023-02-18T13:51:51.629Z,16.12
2023-02-18T13:54:25.228Z,16.11
2023-02-18T13:56:58.041Z,16.00
2023-02-18T13:59:34.605Z,16.02
2023-02-18T14:02:30.701Z,16.10
2023-02-18T14:05:21.412Z,16.26
2023-02-18T14:07:52.962Z,16.40
2023-02-18T14:10:34.535Z,16.53
2023-02-18T14:13:37.881Z,16.63
2023-02-18T14:16:05.187Z,16.61
2023-02-18T14:18:56.219Z,16.76
2023-02-18T14:21:40.860Z,16.86
2023-02-18T14:24:12.255Z,16.89
2023-02-18T14:26:49.104Z,17.00
2023-02-18T14:29:27.385Z,17.06
2023-02-18T14:32:01.618Z,17.16
2023-02-18T14:35:11.815Z,17.26
2023-02-18T14:38:13.123Z,17.24
2023-02-18T14:41:15.373Z,17.37
2023-02-18T14:44:14.006Z,17.40
2023-02-18T14:47:04.171Z,17.40
2023-02-18T14:49:41.613Z,17.36
2023-02-18T14:52:22.137Z,17.33
2023-02-18T14:54:50.832Z,17.20
2023-02-18T14:57:22.635Z,17.13
2023-02-18T14:59:58.058Z,17.04
2023-02-18T15:02:28.815Z,17.00
2023-02-18T15:05:11.210Z,17.12
2023-02-18T15:07:38.226Z,17.23
2023-02-18T15:10:14.999Z,17.34
2023-02-18T15:12:42.598Z,17.34
2023-02-18T15:15:15.001Z,17.36
2023-02-18T15:17:49.083Z,17.31
2023-02-18T15:20:17.451Z,17.26
2023-02-18T15:22:44.708Z,17.20
2023-02-18T15:25:14.418Z,17.13
2023-02-18T15:27:43.797Z,17.07
2023-02-18T15:30:21.914Z,16.99
2023-02-18T15:32:53.913Z,16.93
2023-02-18T15:35:25.697Z,16.82
2023-02-18T15:37:55.684Z,16.73
2023-02-18T15:40:30.220Z,16.71
2023-02-18T15:43:01.548Z,16.68
2023-02-18T15:45:34.928Z,16.69
2023-02-18T15:48:04.555Z,16.65
2023-02-18T15:50:37.293Z,16.65
2023-02-18T15:53:10.266Z,16.65
2023-02-18T15:55:41.623Z,16.63
2023-02-18T15:58:16.800Z,16.49
2023-02-18T16:00:50.666Z,16.31
2023-02-18T16:03:23.280Z,16.10
2023-02-18T16:05:51.491Z,15.89
2023-02-18T16:08:26.155Z,15.67
2023-02-18T16:11:02.063Z,15.36
2023-02-18T16:13:32.496Z,15.22
2023-02-18T16:16:06.742Z,15.12
2023-02-18T16:18:39.278Z,14.99
2023-02-18T16:21:24.271Z,14.87
2023-02-18T16:23:55.317Z,14.57
2023-02-18T16:26:31.189Z,14.34
2023-02-18T16:29:12.813Z,14.27
2023-02-18T16:31:40.789Z,14.17
2023-02-18T16:34:08.188Z,14.17
2023-02-18T16:36:35.299Z,14.21
2023-02-18T16:39:02.640Z,14.27
2023-02-18T16:41:30.867Z,14.24
2023-02-18T16:43:58.301Z,14.26
2023-02-18T16:46:25.398Z,14.26
2023-02-18T16:48:54.848Z,14.23
2023-02-18T16:51:29.650Z,14.24
2023-02-18T16:53:56.976Z,14.24
2023-02-18T16:56:27.103Z,14.27
2023-02-18T16:59:00.356Z,14.34
2023-02-18T17:01:31.030Z,14.45
2023-02-18T17:04:00.846Z,14.44
2023-02-18T17:06:28.835Z,14.48
2023-02-18T17:08:56.061Z,14.48
2023-02-18T17:11:26.968Z,14.51
2023-02-18T17:13:56.017Z,14.57
2023-02-18T17:16:24.435Z,14.57
2023-02-18T17:18:51.497Z,14.48
2023-02-18T17:21:21.892Z,14.47
2023-02-18T17:23:50.443Z,14.47
2023-02-18T17:29:13.373Z,14.37
2023-02-18T17:31:44.550Z,14.36
2023-02-18T17:34:22.312Z,14.29
2023-02-18T17:36:49.477Z,14.12
2023-02-18T17:39:17.994Z,14.10
2023-02-18T17:41:45.498Z,14.13
2023-02-18T17:44:16.791Z,14.16
2023-02-18T17:46:45.831Z,14.17
2023-02-18T17:49:13.323Z,14.20
2023-02-18T17:51:40.826Z,14.14
2023-02-18T17:54:12.550Z,14.17
2023-02-18T17:56:40.221Z,14.17
2023-02-18T17:59:07.042Z,14.20
2023-02-18T18:01:34.357Z,14.21
2023-02-18T18:04:03.063Z,14.27
2023-02-18T18:06:30.642Z,14.33
2023-02-18T18:08:57.646Z,14.38
2023-02-18T18:11:25.609Z,14.44
2023-02-18T18:13:52.736Z,14.45
2023-02-18T18:16:20.649Z,14.47
2023-02-18T18:18:48.020Z,14.47
2023-02-18T18:21:22.447Z,14.52
2023-02-18T18:23:50.438Z,14.51
2023-02-18T18:26:17.557Z,14.51
2023-02-18T18:28:44.553Z,14.48
2023-02-18T18:31:16.349Z,14.47
2023-02-18T18:33:43.373Z,14.30
2023-02-18T18:36:10.673Z,14.14
2023-02-18T18:38:38.979Z,14.07
2023-02-18T18:41:07.970Z,13.97
2023-02-18T18:43:35.023Z,13.86
2023-02-18T18:46:01.939Z,13.78
2023-02-18T18:48:29.172Z,13.70
2023-02-18T18:50:58.942Z,13.66
2023-02-18T18:53:29.605Z,13.61
2023-02-18T18:56:01.568Z,13.52
2023-02-18T18:58:30.633Z,13.41
2023-02-18T19:03:53.471Z,13.28
2023-02-18T19:06:20.922Z,13.24
2023-02-18T19:08:48.137Z,13.24
2023-02-18T19:11:17.195Z,13.12
2023-02-18T19:13:44.632Z,13.15
2023-02-18T19:16:19.799Z,13.12
2023-02-18T19:18:47.795Z,13.01
2023-02-18T19:21:15.117Z,13.08
2023-02-18T19:23:42.696Z,13.03
2023-02-18T19:26:09.905Z,13.10
2023-02-18T19:28:39.703Z,13.05
2023-02-18T19:31:11.058Z,13.15
2023-02-18T19:33:39.029Z,13.21
2023-02-18T19:36:07.755Z,13.21
2023-02-18T19:38:34.635Z,13.22
2023-02-18T19:41:08.044Z,13.19
2023-02-18T19:43:35.134Z,13.17
2023-02-18T19:46:09.018Z,13.24
2023-02-18T19:48:36.524Z,13.17
2023-02-18T19:51:04.361Z,13.21
2023-02-18T19:53:31.443Z,13.22
2023-02-18T19:56:00.735Z,13.25
2023-02-18T19:58:29.364Z,13.21
2023-02-18T20:00:57.005Z,13.25
2023-02-18T20:03:26.178Z,13.18
2023-02-18T20:05:52.972Z,13.21
2023-02-18T20:08:19.950Z,13.21
2023-02-18T20:10:55.223Z,13.25
2023-02-18T20:13:22.179Z,13.29
2023-02-18T20:15:49.559Z,13.34
2023-02-18T20:18:16.659Z,13.35
2023-02-18T20:20:49.345Z,13.32
2023-02-18T20:23:16.708Z,13.21
2023-02-18T20:25:43.748Z,13.24
2023-02-18T20:28:10.678Z,13.15
2023-02-18T20:30:37.557Z,13.01
2023-02-18T20:33:04.597Z,13.07
2023-02-18T20:35:31.895Z,13.14
2023-02-18T20:38:00.355Z,13.17
2023-02-18T20:40:27.734Z,13.15
2023-02-18T20:42:54.766Z,13.10
2023-02-18T20:45:21.883Z,13.07
2023-02-18T20:47:48.883Z,13.03
2023-02-18T20:50:16.165Z,13.00
2023-02-18T20:52:43.358Z,12.90
2023-02-18T20:55:11.552Z,12.91
2023-02-18T20:57:38.453Z,12.84
2023-02-18T21:00:06.938Z,12.76
2023-02-18T21:02:33.952Z,12.74
2023-02-18T21:05:01.025Z,12.66
2023-02-18T21:07:27.914Z,12.66
2023-02-18T21:09:54.811Z,12.64
2023-02-18T21:12:22.991Z,12.70
2023-02-18T21:14:50.000Z,12.77
2023-02-18T21:17:16.988Z,12.68
2023-02-18T21:19:43.896Z,12.68
2023-02-18T21:22:10.777Z,12.72
2023-02-18T21:24:37.600Z,12.73
2023-02-18T21:27:04.513Z,12.72
2023-02-18T21:29:32.806Z,12.73
2023-02-18T21:31:59.709Z,12.80
2023-02-18T21:34:26.803Z,12.83
2023-02-18T21:36:53.741Z,12.80
2023-02-18T21:39:20.925Z,12.76
2023-02-18T21:41:47.752Z,12.73
2023-02-18T21:44:14.620Z,12.70
2023-02-18T21:46:42.901Z,12.79
2023-02-18T21:49:11.041Z,12.87
2023-02-18T21:51:40.843Z,12.90
2023-02-18T21:54:07.829Z,12.95
2023-02-18T21:56:35.647Z,12.94
2023-02-18T21:59:03.297Z,13.03
2023-02-18T22:01:30.372Z,13.05
2023-02-18T22:03:59.099Z,13.01
2023-02-18T22:06:26.203Z,13.10
2023-02-18T22:08:53.427Z,13.08
2023-02-18T22:11:20.258Z,13.05
2023-02-18T22:13:47.616Z,13.08
2023-02-18T22:16:14.586Z,13.12
2023-02-18T22:18:41.559Z,13.21
2023-02-18T22:21:10.609Z,13.35
2023-02-18T22:23:38.071Z,13.39
2023-02-18T22:26:07.052Z,13.46
2023-02-18T22:28:34.817Z,13.54
2023-02-18T22:31:07.142Z,13.55
2023-02-18T22:33:34.614Z,13.61
2023-02-18T22:36:02.077Z,13.68
2023-02-18T22:38:34.001Z,13.78
2023-02-18T22:41:04.563Z,13.85
2023-02-18T22:43:31.491Z,13.90
2023-02-18T22:46:03.198Z,13.91
2023-02-18T22:48:32.031Z,13.86
2023-02-18T22:51:05.579Z,13.89
2023-02-18T22:53:34.494Z,13.95
2023-02-18T22:56:04.368Z,14.03
2023-02-18T22:58:31.906Z,14.16
2023-02-18T23:00:58.771Z,14.27
2023-02-18T23:03:27.727Z,14.30
2023-02-18T23:05:54.837Z,14.29
2023-02-18T23:08:22.765Z,14.29
2023-02-18T23:11:01.420Z,14.33
2023-02-18T23:13:28.436Z,14.30
2023-02-18T23:15:59.802Z,14.38
2023-02-18T23:18:28.285Z,14.44
2023-02-18T23:21:01.159Z,14.45
2023-02-18T23:23:28.321Z,14.33
2023-02-18T23:26:01.840Z,14.30
2023-02-18T23:28:28.785Z,14.26
2023-02-18T23:30:55.800Z,14.23
2023-02-18T23:33:22.684Z,14.21
2023-02-18T23:35:49.706Z,14.09
2023-02-18T23:38:16.646Z,14.13
2023-02-18T23:40:43.464Z,14.13
2023-02-18T23:43:11.683Z,14.07
2023-02-18T23:45:38.593Z,14.09
2023-02-18T23:48:05.998Z,14.14
2023-02-18T23:50:33.068Z,14.19
2023-02-18T23:52:59.979Z,14.23
2023-02-18T23:55:26.869Z,14.30
2023-02-18T23:57:54.153Z,14.34
